sensor_id;sensor_type;location;lat;lon;timestamp;pressure;altitude;pressure_sealevel;temperature;humidity
21276;BME280;36472;52.170;20.884;2023-04-10T00:00:15;101255.22;;;8.81;90.42
21276;BME280;36472;52.170;20.884;2023-04-10T00:03:04;101249.34;;;8.76;90.90
21276;BME280;36472;52.170;20.884;2023-04-10T00:05:33;101260.00;;;8.73;90.91
21276;BME280;36472;52.170;20.884;2023-04-10T00:08:02;101255.72;;;8.70;90.83
21276;BME280;36472;52.170;20.884;2023-04-10T00:10:33;101254.16;;;8.66;91.23
21276;BME280;36472;52.170;20.884;2023-04-10T00:13:02;101255.84;;;8.67;91.03
21276;BME280;36472;52.170;20.884;2023-04-10T00:15:31;101256.06;;;8.63;90.70
21276;BME280;36472;52.170;20.884;2023-04-10T00:18:00;101260.44;;;8.62;90.30
21276;BME280;36472;52.170;20.884;2023-04-10T00:20:29;101264.91;;;8.60;90.48
21276;BME280;36472;52.170;20.884;2023-04-10T00:22:58;101263.28;;;8.57;90.46
21276;BME280;36472;52.170;20.884;2023-04-10T00:25:27;101269.41;;;8.56;90.78
21276;BME280;36472;52.170;20.884;2023-04-10T00:27:57;101259.91;;;8.54;90.89
21276;BME280;36472;52.170;20.884;2023-04-10T00:30:26;101265.31;;;8.51;91.51
21276;BME280;36472;52.170;20.884;2023-04-10T00:32:55;101269.66;;;8.50;91.55
21276;BME280;36472;52.170;20.884;2023-04-10T00:35:24;101257.50;;;8.49;91.51
21276;BME280;36472;52.170;20.884;2023-04-10T00:37:53;101259.31;;;8.47;91.84
21276;BME280;36472;52.170;20.884;2023-04-10T00:40:23;101262.03;;;8.46;91.29
21276;BME280;36472;52.170;20.884;2023-04-10T00:42:53;101254.22;;;8.44;91.23
21276;BME280;36472;52.170;20.884;2023-04-10T00:45:23;101256.16;;;8.39;90.90
21276;BME280;36472;52.170;20.884;2023-04-10T00:47:53;101260.69;;;8.35;91.02
21276;BME280;36472;52.170;20.884;2023-04-10T00:50:23;101263.38;;;8.34;90.72
21276;BME280;36472;52.170;20.884;2023-04-10T00:52:52;101258.38;;;8.28;90.93
21276;BME280;36472;52.170;20.884;2023-04-10T00:55:23;101254.97;;;8.26;91.11
21276;BME280;36472;52.170;20.884;2023-04-10T00:57:54;101269.91;;;8.23;90.48
21276;BME280;36472;52.170;20.884;2023-04-10T01:00:25;101264.72;;;8.22;90.73
21276;BME280;36472;52.170;20.884;2023-04-10T01:02:54;101277.22;;;8.15;91.38
21276;BME280;36472;52.170;20.884;2023-04-10T01:05:25;101273.75;;;8.15;91.47
21276;BME280;36472;52.170;20.884;2023-04-10T01:08:08;101271.19;;;8.13;91.02
21276;BME280;36472;52.170;20.884;2023-04-10T01:10:47;101270.84;;;8.00;91.24
21276;BME280;36472;52.170;20.884;2023-04-10T01:13:23;101276.41;;;7.93;90.75
21276;BME280;36472;52.170;20.884;2023-04-10T01:16:01;101280.34;;;7.81;91.04
21276;BME280;36472;52.170;20.884;2023-04-10T01:18:41;101274.00;;;7.86;91.38
21276;BME280;36472;52.170;20.884;2023-04-10T01:21:15;101276.75;;;7.83;92.04
21276;BME280;36472;52.170;20.884;2023-04-10T01:24:19;101270.34;;;7.91;91.70
21276;BME280;36472;52.170;20.884;2023-04-10T01:27:12;101272.97;;;7.91;91.54
21276;BME280;36472;52.170;20.884;2023-04-10T01:29:55;101276.50;;;7.90;91.58
21276;BME280;36472;52.170;20.884;2023-04-10T01:32:28;101269.56;;;7.89;91.35
21276;BME280;36472;52.170;20.884;2023-04-10T01:35:05;101263.66;;;7.83;91.49
21276;BME280;36472;52.170;20.884;2023-04-10T01:37:40;101261.09;;;7.82;91.77
21276;BME280;36472;52.170;20.884;2023-04-10T01:40:16;101255.97;;;7.79;91.69
21276;BME280;36472;52.170;20.884;2023-04-10T01:42:50;101265.88;;;7.72;91.69
21276;BME280;36472;52.170;20.884;2023-04-10T01:45:29;101273.94;;;7.66;91.34
21276;BME280;36472;52.170;20.884;2023-04-10T01:48:00;101267.81;;;7.67;91.00
21276;BME280;36472;52.170;20.884;2023-04-10T01:50:31;101266.09;;;7.66;91.38
21276;BME280;36472;52.170;20.884;2023-04-10T01:53:04;101259.28;;;7.62;91.74
21276;BME280;36472;52.170;20.884;2023-04-10T01:55:36;101262.81;;;7.61;91.55
21276;BME280;36472;52.170;20.884;2023-04-10T01:58:08;101258.47;;;7.60;91.22
21276;BME280;36472;52.170;20.884;2023-04-10T02:00:41;101265.47;;;7.59;91.19
21276;BME280;36472;52.170;20.884;2023-04-10T02:03:12;101259.47;;;7.57;91.15
21276;BME280;36472;52.170;20.884;2023-04-10T02:05:55;101262.31;;;7.51;90.98
21276;BME280;36472;52.170;20.884;2023-04-10T02:08:35;101257.19;;;7.48;91.25
21276;BME280;36472;52.170;20.884;2023-04-10T02:11:14;101263.41;;;7.45;91.17
21276;BME280;36472;52.170;20.884;2023-04-10T02:13:48;101262.66;;;7.42;90.80
21276;BME280;36472;52.170;20.884;2023-04-10T02:16:21;101263.63;;;7.39;90.78
21276;BME280;36472;52.170;20.884;2023-04-10T02:18:52;101265.63;;;7.33;90.87
21276;BME280;36472;52.170;20.884;2023-04-10T02:21:22;101271.66;;;7.35;90.75
21276;BME280;36472;52.170;20.884;2023-04-10T02:23:51;101265.72;;;7.31;90.93
21276;BME280;36472;52.170;20.884;2023-04-10T02:26:20;101271.03;;;7.28;92.33
21276;BME280;36472;52.170;20.884;2023-04-10T02:28:49;101273.66;;;7.28;92.05
21276;BME280;36472;52.170;20.884;2023-04-10T02:31:20;101275.41;;;7.27;91.88
21276;BME280;36472;52.170;20.884;2023-04-10T02:33:49;101273.59;;;7.29;91.53
21276;BME280;36472;52.170;20.884;2023-04-10T02:36:18;101273.66;;;7.28;90.48
21276;BME280;36472;52.170;20.884;2023-04-10T02:38:47;101277.47;;;7.19;91.30
21276;BME280;36472;52.170;20.884;2023-04-10T02:41:16;101278.25;;;7.21;93.06
21276;BME280;36472;52.170;20.884;2023-04-10T02:43:45;101282.47;;;7.25;92.78
21276;BME280;36472;52.170;20.884;2023-04-10T02:46:14;101275.69;;;7.20;92.05
21276;BME280;36472;52.170;20.884;2023-04-10T02:48:45;101275.81;;;7.17;91.94
21276;BME280;36472;52.170;20.884;2023-04-10T02:51:14;101275.81;;;7.17;91.59
21276;BME280;36472;52.170;20.884;2023-04-10T02:53:43;101273.09;;;7.20;91.31
21276;BME280;36472;52.170;20.884;2023-04-10T02:56:21;101272.16;;;7.21;91.58
21276;BME280;36472;52.170;20.884;2023-04-10T02:58:50;101270.59;;;7.17;91.56
21276;BME280;36472;52.170;20.884;2023-04-10T03:01:20;101268.94;;;7.14;91.70
21276;BME280;36472;52.170;20.884;2023-04-10T03:03:52;101276.03;;;7.10;91.49
21276;BME280;36472;52.170;20.884;2023-04-10T03:06:27;101271.72;;;7.09;91.71
21276;BME280;36472;52.170;20.884;2023-04-10T03:08:57;101268.31;;;7.07;91.33
21276;BME280;36472;52.170;20.884;2023-04-10T03:11:27;101266.81;;;7.00;91.08
21276;BME280;36472;52.170;20.884;2023-04-10T03:13:57;101266.03;;;6.98;91.45
21276;BME280;36472;52.170;20.884;2023-04-10T03:16:26;101275.69;;;6.96;91.20
21276;BME280;36472;52.170;20.884;2023-04-10T03:18:56;101275.69;;;6.96;91.51
21276;BME280;36472;52.170;20.884;2023-04-10T03:21:25;101274.16;;;6.90;91.46
21276;BME280;36472;52.170;20.884;2023-04-10T03:23:55;101271.53;;;6.90;91.56
21276;BME280;36472;52.170;20.884;2023-04-10T03:26:24;101268.88;;;6.92;91.42
21276;BME280;36472;52.170;20.884;2023-04-10T03:28:54;101266.38;;;6.89;91.67
21276;BME280;36472;52.170;20.884;2023-04-10T03:31:23;101265.69;;;6.84;91.49
21276;BME280;36472;52.170;20.884;2023-04-10T03:33:57;101265.69;;;6.84;91.56
21276;BME280;36472;52.170;20.884;2023-04-10T03:36:26;101280.72;;;6.77;90.94
21276;BME280;36472;52.170;20.884;2023-04-10T03:38:55;101266.88;;;6.75;90.88
21276;BME280;36472;52.170;20.884;2023-04-10T03:41:24;101266.88;;;6.75;90.60
21276;BME280;36472;52.170;20.884;2023-04-10T03:43:53;101274.97;;;6.67;91.47
21276;BME280;36472;52.170;20.884;2023-04-10T03:46:23;101281.84;;;6.70;91.19
21276;BME280;36472;52.170;20.884;2023-04-10T03:48:53;101275.84;;;6.68;91.30
21276;BME280;36472;52.170;20.884;2023-04-10T03:51:23;101275.94;;;6.65;91.30
21276;BME280;36472;52.170;20.884;2023-04-10T03:53:53;101271.66;;;6.62;91.31
21276;BME280;36472;52.170;20.884;2023-04-10T03:56:22;101271.44;;;6.68;91.33
21276;BME280;36472;52.170;20.884;2023-04-10T03:58:51;101269.91;;;6.63;91.55
21276;BME280;36472;52.170;20.884;2023-04-10T04:01:21;101273.47;;;6.60;91.81
21276;BME280;36472;52.170;20.884;2023-04-10T04:04:04;101284.06;;;6.55;90.82
21276;BME280;36472;52.170;20.884;2023-04-10T04:06:55;101292.88;;;6.53;90.43
21276;BME280;36472;52.170;20.884;2023-04-10T04:09:24;101297.31;;;6.51;90.61
21276;BME280;36472;52.170;20.884;2023-04-10T04:12:15;101291.22;;;6.50;89.91
21276;BME280;36472;52.170;20.884;2023-04-10T04:15:01;101295.53;;;6.51;90.13
21276;BME280;36472;52.170;20.884;2023-04-10T04:17:56;101286.91;;;6.49;90.91
21276;BME280;36472;52.170;20.884;2023-04-10T04:20:36;101300.56;;;6.58;91.40
21276;BME280;36472;52.170;20.884;2023-04-10T04:23:16;101297.81;;;6.61;91.65
21276;BME280;36472;52.170;20.884;2023-04-10T04:26:03;101310.03;;;6.60;93.53
21276;BME280;36472;52.170;20.884;2023-04-10T04:28:52;101309.94;;;6.63;94.71
21276;BME280;36472;52.170;20.884;2023-04-10T04:31:36;101307.97;;;6.70;94.83
21276;BME280;36472;52.170;20.884;2023-04-10T04:34:34;101310.31;;;6.78;93.77
21276;BME280;36472;52.170;20.884;2023-04-10T04:37:21;101316.28;;;6.81;93.36
21276;BME280;36472;52.170;20.884;2023-04-10T04:40:11;101312.72;;;6.84;93.55
21276;BME280;36472;52.170;20.884;2023-04-10T04:42:58;101316.03;;;6.89;94.29
21276;BME280;36472;52.170;20.884;2023-04-10T04:45:56;101316.75;;;6.92;94.25
21276;BME280;36472;52.170;20.884;2023-04-10T04:48:46;101322.84;;;6.93;95.11
21276;BME280;36472;52.170;20.884;2023-04-10T04:51:33;101327.97;;;6.96;95.51
21276;BME280;36472;52.170;20.884;2023-04-10T04:54:06;101324.41;;;6.99;95.49
21276;BME280;36472;52.170;20.884;2023-04-10T04:56:42;101332.78;;;7.07;95.57
21276;BME280;36472;52.170;20.884;2023-04-10T04:59:28;101328.50;;;7.06;95.30
21276;BME280;36472;52.170;20.884;2023-04-10T05:02:04;101323.25;;;7.06;95.93
21276;BME280;36472;52.170;20.884;2023-04-10T05:04:48;101332.75;;;7.08;96.61
21276;BME280;36472;52.170;20.884;2023-04-10T05:07:35;101324.75;;;7.13;96.30
21276;BME280;36472;52.170;20.884;2023-04-10T05:10:24;101327.34;;;7.13;97.08
21276;BME280;36472;52.170;20.884;2023-04-10T05:13:33;101341.81;;;7.23;97.18
21276;BME280;36472;52.170;20.884;2023-04-10T05:16:20;101338.69;;;7.37;96.97
21276;BME280;36472;52.170;20.884;2023-04-10T05:19:15;101329.84;;;7.41;96.73
21276;BME280;36472;52.170;20.884;2023-04-10T05:21:55;101334.94;;;7.44;97.03
21276;BME280;36472;52.170;20.884;2023-04-10T05:24:47;101338.00;;;7.56;96.96
21276;BME280;36472;52.170;20.884;2023-04-10T05:27:23;101336.06;;;7.61;97.47
21276;BME280;36472;52.170;20.884;2023-04-10T05:30:13;101333.34;;;7.64;97.92
21276;BME280;36472;52.170;20.884;2023-04-10T05:33:03;101337.41;;;7.71;98.81
21276;BME280;36472;52.170;20.884;2023-04-10T05:35:35;101342.28;;;7.80;99.26
21276;BME280;36472;52.170;20.884;2023-04-10T05:38:33;101348.88;;;7.91;99.60
21276;BME280;36472;52.170;20.884;2023-04-10T05:41:22;101338.28;;;7.94;99.77
21276;BME280;36472;52.170;20.884;2023-04-10T05:44:03;101340.28;;;8.09;100.00
21276;BME280;36472;52.170;20.884;2023-04-10T05:46:48;101333.66;;;8.22;100.00
21276;BME280;36472;52.170;20.884;2023-04-10T05:49:17;101339.16;;;8.37;99.99
21276;BME280;36472;52.170;20.884;2023-04-10T05:52:04;101333.44;;;8.51;100.00
21276;BME280;36472;52.170;20.884;2023-04-10T05:55:01;101347.50;;;8.69;99.69
21276;BME280;36472;52.170;20.884;2023-04-10T05:57:38;101337.44;;;8.80;99.35
21276;BME280;36472;52.170;20.884;2023-04-10T06:00:30;101342.78;;;8.97;99.47
21276;BME280;36472;52.170;20.884;2023-04-10T06:03:24;101346.09;;;9.22;98.93
21276;BME280;36472;52.170;20.884;2023-04-10T06:06:00;101349.69;;;9.40;98.47
21276;BME280;36472;52.170;20.884;2023-04-10T06:08:30;101350.47;;;9.61;98.25
21276;BME280;36472;52.170;20.884;2023-04-10T06:11:01;101353.72;;;9.85;96.92
21276;BME280;36472;52.170;20.884;2023-04-10T06:13:31;101351.22;;;10.01;96.19
21276;BME280;36472;52.170;20.884;2023-04-10T06:16:02;101360.00;;;10.19;96.40
21276;BME280;36472;52.170;20.884;2023-04-10T06:18:33;101362.53;;;10.39;95.84
21276;BME280;36472;52.170;20.884;2023-04-10T06:21:04;101362.41;;;10.60;95.01
21276;BME280;36472;52.170;20.884;2023-04-10T06:23:33;101362.25;;;10.80;93.85
21276;BME280;36472;52.170;20.884;2023-04-10T06:26:03;101356.97;;;10.98;92.91
21276;BME280;36472;52.170;20.884;2023-04-10T06:28:32;101359.75;;;11.12;91.29
21276;BME280;36472;52.170;20.884;2023-04-10T06:31:05;101360.88;;;11.24;90.69
21276;BME280;36472;52.170;20.884;2023-04-10T06:33:38;101355.97;;;11.34;90.08
21276;BME280;36472;52.170;20.884;2023-04-10T06:36:09;101348.19;;;11.48;89.15
21276;BME280;36472;52.170;20.884;2023-04-10T06:38:44;101348.53;;;11.58;89.37
21276;BME280;36472;52.170;20.884;2023-04-10T06:41:13;101351.09;;;11.75;88.88
21276;BME280;36472;52.170;20.884;2023-04-10T06:43:42;101353.81;;;11.90;87.87
21276;BME280;36472;52.170;20.884;2023-04-10T06:46:12;101350.09;;;12.10;86.11
21276;BME280;36472;52.170;20.884;2023-04-10T06:48:44;101352.97;;;12.21;86.08
21276;BME280;36472;52.170;20.884;2023-04-10T06:51:13;101353.13;;;12.34;85.27
21276;BME280;36472;52.170;20.884;2023-04-10T06:53:41;101361.78;;;12.52;84.60
21276;BME280;36472;52.170;20.884;2023-04-10T06:56:11;101354.91;;;12.64;83.48
21276;BME280;36472;52.170;20.884;2023-04-10T06:58:39;101357.59;;;12.78;83.34
21276;BME280;36472;52.170;20.884;2023-04-10T07:01:09;101364.13;;;13.01;82.36
21276;BME280;36472;52.170;20.884;2023-04-10T07:03:37;101364.63;;;13.22;80.82
21276;BME280;36472;52.170;20.884;2023-04-10T07:06:09;101362.66;;;13.55;79.61
21276;BME280;36472;52.170;20.884;2023-04-10T07:08:38;101362.03;;;13.93;77.26
21276;BME280;36472;52.170;20.884;2023-04-10T07:11:07;101364.25;;;14.26;74.49
21276;BME280;36472;52.170;20.884;2023-04-10T07:13:36;101361.72;;;14.52;72.84
21276;BME280;36472;52.170;20.884;2023-04-10T07:16:08;101363.38;;;14.67;71.65
21276;BME280;36472;52.170;20.884;2023-04-10T07:18:37;101368.69;;;14.80;71.81
21276;BME280;36472;52.170;20.884;2023-04-10T07:21:10;101374.41;;;15.00;71.37
21276;BME280;36472;52.170;20.884;2023-04-10T07:23:39;101376.97;;;15.14;70.49
21276;BME280;36472;52.170;20.884;2023-04-10T07:26:09;101370.47;;;15.18;69.37
21276;BME280;36472;52.170;20.884;2023-04-10T07:28:38;101365.94;;;15.33;68.34
21276;BME280;36472;52.170;20.884;2023-04-10T07:31:07;101367.91;;;15.42;68.20
21276;BME280;36472;52.170;20.884;2023-04-10T07:33:37;101371.50;;;15.54;67.59
21276;BME280;36472;52.170;20.884;2023-04-10T07:36:07;101368.66;;;15.57;67.38
21276;BME280;36472;52.170;20.884;2023-04-10T07:38:38;101371.91;;;15.74;67.97
21276;BME280;36472;52.170;20.884;2023-04-10T07:41:07;101363.41;;;15.94;67.34
21276;BME280;36472;52.170;20.884;2023-04-10T07:43:36;101363.94;;;16.11;65.05
21276;BME280;36472;52.170;20.884;2023-04-10T07:46:06;101365.25;;;16.29;64.41
21276;BME280;36472;52.170;20.884;2023-04-10T07:48:35;101370.84;;;16.37;64.27
21276;BME280;36472;52.170;20.884;2023-04-10T07:51:04;101365.59;;;16.49;64.15
21276;BME280;36472;52.170;20.884;2023-04-10T07:53:37;101365.88;;;16.68;62.25
21276;BME280;36472;52.170;20.884;2023-04-10T07:56:13;101371.75;;;16.85;61.53
21276;BME280;36472;52.170;20.884;2023-04-10T07:58:42;101362.13;;;16.95;61.79
21276;BME280;36472;52.170;20.884;2023-04-10T08:01:11;101363.00;;;17.07;61.04
21276;BME280;36472;52.170;20.884;2023-04-10T08:03:43;101360.81;;;17.23;61.57
21276;BME280;36472;52.170;20.884;2023-04-10T08:06:13;101369.03;;;17.43;60.05
21276;BME280;36472;52.170;20.884;2023-04-10T08:08:43;101366.00;;;17.58;59.45
21276;BME280;36472;52.170;20.884;2023-04-10T08:11:24;101364.66;;;17.64;58.94
21276;BME280;36472;52.170;20.884;2023-04-10T08:13:55;101361.88;;;17.66;58.50
21276;BME280;36472;52.170;20.884;2023-04-10T08:16:26;101366.00;;;17.70;58.47
21276;BME280;36472;52.170;20.884;2023-04-10T08:18:57;101367.09;;;17.67;59.18
21276;BME280;36472;52.170;20.884;2023-04-10T08:21:29;101365.25;;;17.68;59.67
21276;BME280;36472;52.170;20.884;2023-04-10T08:24:01;101365.63;;;17.74;58.34
21276;BME280;36472;52.170;20.884;2023-04-10T08:26:31;101358.97;;;17.80;58.20
21276;BME280;36472;52.170;20.884;2023-04-10T08:29:00;101365.13;;;17.81;56.99
21276;BME280;36472;52.170;20.884;2023-04-10T08:31:29;101365.28;;;17.90;57.57
21276;BME280;36472;52.170;20.884;2023-04-10T08:33:58;101364.75;;;17.97;57.39
21276;BME280;36472;52.170;20.884;2023-04-10T08:36:28;101365.91;;;18.15;57.01
21276;BME280;36472;52.170;20.884;2023-04-10T08:38:59;101361.16;;;18.30;55.91
21276;BME280;36472;52.170;20.884;2023-04-10T08:41:28;101363.16;;;18.38;54.98
21276;BME280;36472;52.170;20.884;2023-04-10T08:43:57;101362.28;;;18.48;54.91
21276;BME280;36472;52.170;20.884;2023-04-10T08:46:28;101360.53;;;18.59;54.64
21276;BME280;36472;52.170;20.884;2023-04-10T08:49:02;101365.22;;;18.66;54.80
21276;BME280;36472;52.170;20.884;2023-04-10T08:51:37;101364.63;;;18.63;54.30
21276;BME280;36472;52.170;20.884;2023-04-10T08:54:13;101354.88;;;18.52;53.80
21276;BME280;36472;52.170;20.884;2023-04-10T08:56:50;101356.09;;;18.48;53.76
21276;BME280;36472;52.170;20.884;2023-04-10T08:59:21;101359.72;;;18.26;54.99
21276;BME280;36472;52.170;20.884;2023-04-10T09:01:50;101355.72;;;18.31;55.34
21276;BME280;36472;52.170;20.884;2023-04-10T09:04:20;101349.81;;;18.49;54.91
21276;BME280;36472;52.170;20.884;2023-04-10T09:06:49;101345.66;;;18.56;54.74
21276;BME280;36472;52.170;20.884;2023-04-10T09:09:19;101346.13;;;18.61;53.56
21276;BME280;36472;52.170;20.884;2023-04-10T09:11:59;101349.69;;;18.72;53.65
21276;BME280;36472;52.170;20.884;2023-04-10T09:14:32;101349.19;;;18.78;53.98
21276;BME280;36472;52.170;20.884;2023-04-10T09:17:16;101342.91;;;19.00;52.38
21276;BME280;36472;52.170;20.884;2023-04-10T09:19:47;101334.53;;;19.14;51.95
21276;BME280;36472;52.170;20.884;2023-04-10T09:22:17;101335.88;;;19.30;52.48
21276;BME280;36472;52.170;20.884;2023-04-10T09:24:47;101329.34;;;19.94;52.10
21276;BME280;36472;52.170;20.884;2023-04-10T09:27:37;101318.22;;;20.37;49.49
21276;BME280;36472;52.170;20.884;2023-04-10T09:30:07;101332.56;;;20.76;47.94
21276;BME280;36472;52.170;20.884;2023-04-10T09:32:39;101330.81;;;20.94;47.88
21276;BME280;36472;52.170;20.884;2023-04-10T09:35:10;101325.94;;;21.17;47.47
21276;BME280;36472;52.170;20.884;2023-04-10T09:37:41;101319.78;;;21.44;45.46
21276;BME280;36472;52.170;20.884;2023-04-10T09:40:24;101325.41;;;21.51;45.26
21276;BME280;36472;52.170;20.884;2023-04-10T09:42:55;101322.88;;;21.12;45.79
21276;BME280;36472;52.170;20.884;2023-04-10T09:45:24;101319.72;;;21.26;47.11
21276;BME280;36472;52.170;20.884;2023-04-10T09:48:04;101310.97;;;21.34;46.25
21276;BME280;36472;52.170;20.884;2023-04-10T09:50:35;101313.16;;;21.11;46.10
21276;BME280;36472;52.170;20.884;2023-04-10T09:53:07;101313.50;;;20.98;45.82
21276;BME280;36472;52.170;20.884;2023-04-10T09:55:39;101313.47;;;21.08;45.84
21276;BME280;36472;52.170;20.884;2023-04-10T09:58:09;101300.03;;;21.27;45.47
21276;BME280;36472;52.170;20.884;2023-04-10T10:00:40;101299.94;;;21.47;45.37
21276;BME280;36472;52.170;20.884;2023-04-10T10:03:12;101302.47;;;21.48;45.36
21276;BME280;36472;52.170;20.884;2023-04-10T10:05:43;101299.25;;;21.73;44.81
21276;BME280;36472;52.170;20.884;2023-04-10T10:08:14;101292.50;;;22.04;43.49
21276;BME280;36472;52.170;20.884;2023-04-10T10:10:47;101294.25;;;22.50;41.93
21276;BME280;36472;52.170;20.884;2023-04-10T10:13:26;101288.22;;;22.74;40.76
21276;BME280;36472;52.170;20.884;2023-04-10T10:16:04;101286.94;;;22.86;41.23
21276;BME280;36472;52.170;20.884;2023-04-10T10:18:43;101277.59;;;22.64;41.64
21276;BME280;36472;52.170;20.884;2023-04-10T10:21:14;101271.06;;;22.93;41.15
21276;BME280;36472;52.170;20.884;2023-04-10T10:23:46;101271.66;;;23.72;39.35
21276;BME280;36472;52.170;20.884;2023-04-10T10:26:22;101264.63;;;23.71;37.87
21276;BME280;36472;52.170;20.884;2023-04-10T10:28:53;101266.66;;;22.31;39.93
21276;BME280;36472;52.170;20.884;2023-04-10T10:31:26;101259.78;;;21.57;40.63
21276;BME280;36472;52.170;20.884;2023-04-10T10:34:00;101265.88;;;20.84;41.78
21276;BME280;36472;52.170;20.884;2023-04-10T10:36:31;101258.59;;;21.14;42.42
21276;BME280;36472;52.170;20.884;2023-04-10T10:39:22;101260.03;;;22.96;39.94
21276;BME280;36472;52.170;20.884;2023-04-10T10:42:03;101252.72;;;24.56;37.61
21276;BME280;36472;52.170;20.884;2023-04-10T10:44:48;101250.00;;;25.28;36.13
21276;BME280;36472;52.170;20.884;2023-04-10T10:47:23;101247.84;;;25.47;35.81
21276;BME280;36472;52.170;20.884;2023-04-10T10:49:56;101250.72;;;25.06;35.39
21276;BME280;36472;52.170;20.884;2023-04-10T10:52:43;101252.94;;;24.38;35.82
21276;BME280;36472;52.170;20.884;2023-04-10T10:55:32;101249.41;;;23.96;37.23
21276;BME280;36472;52.170;20.884;2023-04-10T10:58:07;101250.03;;;23.74;36.83
21276;BME280;36472;52.170;20.884;2023-04-10T11:01:06;101247.34;;;23.65;37.10
21276;BME280;36472;52.170;20.884;2023-04-10T11:03:37;101242.50;;;23.61;36.65
21276;BME280;36472;52.170;20.884;2023-04-10T11:06:08;101254.00;;;23.02;37.90
21276;BME280;36472;52.170;20.884;2023-04-10T11:08:44;101245.09;;;22.33;39.16
21276;BME280;36472;52.170;20.884;2023-04-10T11:11:18;101233.88;;;21.75;39.84
21276;BME280;36472;52.170;20.884;2023-04-10T11:14:16;101231.72;;;21.15;40.42
21276;BME280;36472;52.170;20.884;2023-04-10T11:16:47;101226.91;;;21.19;40.51
21276;BME280;36472;52.170;20.884;2023-04-10T11:19:16;101224.16;;;21.56;40.23
21276;BME280;36472;52.170;20.884;2023-04-10T11:22:02;101221.66;;;22.17;39.68
21276;BME280;36472;52.170;20.884;2023-04-10T11:24:52;101212.09;;;22.93;39.08
21276;BME280;36472;52.170;20.884;2023-04-10T11:27:42;101206.28;;;24.06;38.16
21276;BME280;36472;52.170;20.884;2023-04-10T11:30:30;101209.66;;;23.83;37.09
21276;BME280;36472;52.170;20.884;2023-04-10T11:33:01;101214.31;;;22.71;38.44
21276;BME280;36472;52.170;20.884;2023-04-10T11:35:31;101209.56;;;21.87;40.06
21276;BME280;36472;52.170;20.884;2023-04-10T11:38:12;101208.94;;;21.39;39.82
21276;BME280;36472;52.170;20.884;2023-04-10T11:41:02;101198.09;;;21.40;39.58
21276;BME280;36472;52.170;20.884;2023-04-10T11:43:33;101206.19;;;22.02;38.51
21276;BME280;36472;52.170;20.884;2023-04-10T11:46:06;101194.09;;;22.42;37.29
21276;BME280;36472;52.170;20.884;2023-04-10T11:48:36;101197.72;;;22.33;36.94
21276;BME280;36472;52.170;20.884;2023-04-10T11:51:10;101194.56;;;21.94;38.08
21276;BME280;36472;52.170;20.884;2023-04-10T11:53:40;101184.22;;;21.73;38.57
21276;BME280;36472;52.170;20.884;2023-04-10T11:56:17;101171.66;;;21.37;39.08
21276;BME280;36472;52.170;20.884;2023-04-10T11:58:50;101170.84;;;21.09;38.88
21276;BME280;36472;52.170;20.884;2023-04-10T12:01:23;101165.13;;;20.76;39.68
21276;BME280;36472;52.170;20.884;2023-04-10T12:03:52;101163.63;;;20.64;40.32
21276;BME280;36472;52.170;20.884;2023-04-10T12:06:21;101164.31;;;20.66;40.66
21276;BME280;36472;52.170;20.884;2023-04-10T12:08:50;101168.84;;;20.55;40.54
21276;BME280;36472;52.170;20.884;2023-04-10T12:11:22;101156.94;;;20.40;41.11
21276;BME280;36472;52.170;20.884;2023-04-10T12:13:52;101150.53;;;20.23;41.67
21276;BME280;36472;52.170;20.884;2023-04-10T12:16:24;101140.00;;;20.22;41.50
21276;BME280;36472;52.170;20.884;2023-04-10T12:18:54;101140.41;;;20.27;40.70
21276;BME280;36472;52.170;20.884;2023-04-10T12:21:24;101141.97;;;20.20;40.41
21276;BME280;36472;52.170;20.884;2023-04-10T12:23:54;101133.69;;;20.23;39.61
21276;BME280;36472;52.170;20.884;2023-04-10T12:26:22;101128.22;;;20.14;38.83
21276;BME280;36472;52.170;20.884;2023-04-10T12:28:53;101124.75;;;20.04;39.07
21276;BME280;36472;52.170;20.884;2023-04-10T12:31:30;101120.84;;;19.89;39.33
21276;BME280;36472;52.170;20.884;2023-04-10T12:34:02;101118.16;;;19.69;41.40
21276;BME280;36472;52.170;20.884;2023-04-10T12:36:32;101114.56;;;19.80;41.53
21276;BME280;36472;52.170;20.884;2023-04-10T12:39:03;101109.50;;;19.87;43.03
21276;BME280;36472;52.170;20.884;2023-04-10T12:41:33;101110.31;;;19.87;43.06
21276;BME280;36472;52.170;20.884;2023-04-10T12:44:08;101110.19;;;19.89;41.91
21276;BME280;36472;52.170;20.884;2023-04-10T12:46:40;101095.44;;;19.85;41.54
21276;BME280;36472;52.170;20.884;2023-04-10T12:49:13;101104.56;;;19.72;42.46
21276;BME280;36472;52.170;20.884;2023-04-10T12:51:47;101100.66;;;19.76;43.08
21276;BME280;36472;52.170;20.884;2023-04-10T12:54:31;101097.28;;;19.74;42.20
21276;BME280;36472;52.170;20.884;2023-04-10T12:57:01;101096.31;;;19.56;43.28
21276;BME280;36472;52.170;20.884;2023-04-10T12:59:31;101084.50;;;19.58;42.58
21276;BME280;36472;52.170;20.884;2023-04-10T13:02:01;101077.91;;;19.62;41.72
21276;BME280;36472;52.170;20.884;2023-04-10T13:04:30;101084.66;;;19.67;42.17
21276;BME280;36472;52.170;20.884;2023-04-10T13:07:00;101077.88;;;19.72;41.28
21276;BME280;36472;52.170;20.884;2023-04-10T13:09:29;101071.88;;;19.80;39.73
21276;BME280;36472;52.170;20.884;2023-04-10T13:11:58;101068.66;;;19.67;41.01
21276;BME280;36472;52.170;20.884;2023-04-10T13:14:28;101068.06;;;19.83;39.87
21276;BME280;36472;52.170;20.884;2023-04-10T13:16:57;101059.06;;;19.93;39.71
21276;BME280;36472;52.170;20.884;2023-04-10T13:19:27;101058.44;;;20.09;40.23
21276;BME280;36472;52.170;20.884;2023-04-10T13:21:56;101062.09;;;20.36;39.67